Terminal Aerodrome Forecast
Issued by NWS

Home | Current Version | Previous Version | Text Only | Print | Product List | Glossary On
Versions: 1 2 3 4 5 6 7 8 9 10 11 12 13 14 15 16 17 18 19 20 21 22 23 24 25
000
FTUS41 KGYX 211720
TAFHIE
TAF
KHIE 211720Z 2118/2218 21004KT P6SM FEW250
     FM221100 VRB03KT P6SM -SHRA BKN050 PROB30 2212/2215 2SM -SHRASN
      BKN025
     FM221500 30006KT P6SM -SN SCT015 OVC025=

USA.gov is the U.S. government's official web portal to all federal, state and local government web resources and services.